sensor_id;sensor_type;location;lat;lon;timestamp;temperature;humidity
6496;DHT22;3281;47.658;9.166;2023-04-03T00:00:19;8.00;1.00
6496;DHT22;3281;47.658;9.166;2023-04-03T00:02:45;7.90;1.00
6496;DHT22;3281;47.658;9.166;2023-04-03T00:05:12;7.80;1.00
6496;DHT22;3281;47.658;9.166;2023-04-03T00:07:39;7.90;1.00
6496;DHT22;3281;47.658;9.166;2023-04-03T00:10:08;7.80;1.00
6496;DHT22;3281;47.658;9.166;2023-04-03T00:12:35;7.60;1.00
6496;DHT22;3281;47.658;9.166;2023-04-03T00:15:02;7.60;1.00
6496;DHT22;3281;47.658;9.166;2023-04-03T00:17:29;7.70;1.00
6496;DHT22;3281;47.658;9.166;2023-04-03T00:19:55;7.60;1.00
6496;DHT22;3281;47.658;9.166;2023-04-03T00:22:22;7.40;1.00
6496;DHT22;3281;47.658;9.166;2023-04-03T00:24:49;7.30;1.00
6496;DHT22;3281;47.658;9.166;2023-04-03T00:27:17;7.40;1.00
6496;DHT22;3281;47.658;9.166;2023-04-03T00:29:43;7.40;1.00
6496;DHT22;3281;47.658;9.166;2023-04-03T00:32:10;7.30;1.00
6496;DHT22;3281;47.658;9.166;2023-04-03T00:34:37;7.30;1.00
6496;DHT22;3281;47.658;9.166;2023-04-03T00:37:04;7.30;1.00
6496;DHT22;3281;47.658;9.166;2023-04-03T00:39:30;7.30;1.00
6496;DHT22;3281;47.658;9.166;2023-04-03T00:41:58;7.30;1.00
6496;DHT22;3281;47.658;9.166;2023-04-03T00:47:27;7.30;1.00
6496;DHT22;3281;47.658;9.166;2023-04-03T00:49:55;7.30;1.00
6496;DHT22;3281;47.658;9.166;2023-04-03T00:52:25;7.30;1.00
6496;DHT22;3281;47.658;9.166;2023-04-03T00:54:55;7.20;1.00
6496;DHT22;3281;47.658;9.166;2023-04-03T00:57:23;7.30;1.00
6496;DHT22;3281;47.658;9.166;2023-04-03T00:59:53;7.10;1.00
6496;DHT22;3281;47.658;9.166;2023-04-03T01:02:21;7.00;1.00
6496;DHT22;3281;47.658;9.166;2023-04-03T01:04:49;7.00;1.00
6496;DHT22;3281;47.658;9.166;2023-04-03T01:07:18;6.90;1.00
6496;DHT22;3281;47.658;9.166;2023-04-03T01:09:47;6.80;1.00
6496;DHT22;3281;47.658;9.166;2023-04-03T01:12:15;6.80;1.00
6496;DHT22;3281;47.658;9.166;2023-04-03T01:14:42;6.80;1.00
6496;DHT22;3281;47.658;9.166;2023-04-03T01:17:29;6.90;1.00
6496;DHT22;3281;47.658;9.166;2023-04-03T01:20:28;7.00;1.00
6496;DHT22;3281;47.658;9.166;2023-04-03T01:23:02;6.80;1.00
6496;DHT22;3281;47.658;9.166;2023-04-03T01:25:33;6.80;1.00
6496;DHT22;3281;47.658;9.166;2023-04-03T01:28:02;6.80;1.00
6496;DHT22;3281;47.658;9.166;2023-04-03T01:30:32;6.80;1.00
6496;DHT22;3281;47.658;9.166;2023-04-03T01:33:00;7.00;1.00
6496;DHT22;3281;47.658;9.166;2023-04-03T01:35:27;7.00;1.00
6496;DHT22;3281;47.658;9.166;2023-04-03T01:37:54;7.00;1.00
6496;DHT22;3281;47.658;9.166;2023-04-03T01:40:20;7.00;1.00
6496;DHT22;3281;47.658;9.166;2023-04-03T01:42:47;7.10;1.00
6496;DHT22;3281;47.658;9.166;2023-04-03T01:45:14;7.10;1.00
6496;DHT22;3281;47.658;9.166;2023-04-03T01:47:40;7.10;1.00
6496;DHT22;3281;47.658;9.166;2023-04-03T01:50:09;7.10;1.00
6496;DHT22;3281;47.658;9.166;2023-04-03T01:52:35;7.10;1.00
6496;DHT22;3281;47.658;9.166;2023-04-03T01:55:02;7.10;1.00
6496;DHT22;3281;47.658;9.166;2023-04-03T01:57:29;7.00;1.00
6496;DHT22;3281;47.658;9.166;2023-04-03T01:59:56;7.00;1.00
6496;DHT22;3281;47.658;9.166;2023-04-03T02:02:23;7.10;1.00
6496;DHT22;3281;47.658;9.166;2023-04-03T02:04:50;6.90;1.00
6496;DHT22;3281;47.658;9.166;2023-04-03T02:07:18;6.80;1.00
6496;DHT22;3281;47.658;9.166;2023-04-03T02:09:45;6.70;1.00
6496;DHT22;3281;47.658;9.166;2023-04-03T02:12:11;6.70;1.00
6496;DHT22;3281;47.658;9.166;2023-04-03T02:14:38;6.70;1.00
6496;DHT22;3281;47.658;9.166;2023-04-03T02:17:05;6.60;1.00
6496;DHT22;3281;47.658;9.166;2023-04-03T02:19:34;6.40;1.00
6496;DHT22;3281;47.658;9.166;2023-04-03T02:22:00;6.40;1.00
6496;DHT22;3281;47.658;9.166;2023-04-03T02:24:28;6.30;1.00
6496;DHT22;3281;47.658;9.166;2023-04-03T02:26:55;6.40;1.00
6496;DHT22;3281;47.658;9.166;2023-04-03T02:29:22;6.50;1.00
6496;DHT22;3281;47.658;9.166;2023-04-03T02:31:49;6.60;1.00
6496;DHT22;3281;47.658;9.166;2023-04-03T02:34:16;6.50;1.00
6496;DHT22;3281;47.658;9.166;2023-04-03T02:36:43;6.40;1.00
6496;DHT22;3281;47.658;9.166;2023-04-03T02:39:10;6.50;1.00
6496;DHT22;3281;47.658;9.166;2023-04-03T02:41:38;6.50;1.00
6496;DHT22;3281;47.658;9.166;2023-04-03T02:44:06;6.50;1.00
6496;DHT22;3281;47.658;9.166;2023-04-03T02:46:33;6.60;1.00
6496;DHT22;3281;47.658;9.166;2023-04-03T02:49:00;6.40;1.00
6496;DHT22;3281;47.658;9.166;2023-04-03T02:51:27;6.40;1.00
6496;DHT22;3281;47.658;9.166;2023-04-03T02:53:53;6.30;1.00
6496;DHT22;3281;47.658;9.166;2023-04-03T02:56:20;6.10;1.00
6496;DHT22;3281;47.658;9.166;2023-04-03T02:58:48;6.10;1.00
6496;DHT22;3281;47.658;9.166;2023-04-03T03:01:15;6.10;1.00
6496;DHT22;3281;47.658;9.166;2023-04-03T03:03:42;5.90;1.00
6496;DHT22;3281;47.658;9.166;2023-04-03T03:06:10;6.00;1.00
6496;DHT22;3281;47.658;9.166;2023-04-03T03:08:37;6.00;1.00
6496;DHT22;3281;47.658;9.166;2023-04-03T03:11:05;6.00;1.00
6496;DHT22;3281;47.658;9.166;2023-04-03T03:13:32;5.90;1.00
6496;DHT22;3281;47.658;9.166;2023-04-03T03:16:00;5.90;1.00
6496;DHT22;3281;47.658;9.166;2023-04-03T03:18:27;5.90;1.00
6496;DHT22;3281;47.658;9.166;2023-04-03T03:20:54;5.90;1.00
6496;DHT22;3281;47.658;9.166;2023-04-03T03:23:22;5.80;1.00
6496;DHT22;3281;47.658;9.166;2023-04-03T03:25:54;6.00;1.00
6496;DHT22;3281;47.658;9.166;2023-04-03T03:28:21;6.10;1.00
6496;DHT22;3281;47.658;9.166;2023-04-03T03:30:48;6.00;1.00
6496;DHT22;3281;47.658;9.166;2023-04-03T03:33:16;6.00;1.00
6496;DHT22;3281;47.658;9.166;2023-04-03T03:35:43;5.90;1.00
6496;DHT22;3281;47.658;9.166;2023-04-03T03:38:10;6.10;1.00
6496;DHT22;3281;47.658;9.166;2023-04-03T03:40:37;6.10;1.00
6496;DHT22;3281;47.658;9.166;2023-04-03T03:43:04;6.20;1.00
6496;DHT22;3281;47.658;9.166;2023-04-03T03:45:31;6.20;1.00
6496;DHT22;3281;47.658;9.166;2023-04-03T03:47:58;6.10;1.00
6496;DHT22;3281;47.658;9.166;2023-04-03T03:50:26;6.00;1.00
6496;DHT22;3281;47.658;9.166;2023-04-03T03:52:53;6.10;1.00
6496;DHT22;3281;47.658;9.166;2023-04-03T03:55:20;6.00;1.00
6496;DHT22;3281;47.658;9.166;2023-04-03T03:57:47;5.90;1.00
6496;DHT22;3281;47.658;9.166;2023-04-03T04:00:15;6.00;1.00
6496;DHT22;3281;47.658;9.166;2023-04-03T04:02:42;6.00;1.00
6496;DHT22;3281;47.658;9.166;2023-04-03T04:05:09;5.90;1.00
6496;DHT22;3281;47.658;9.166;2023-04-03T04:07:37;5.70;1.00
6496;DHT22;3281;47.658;9.166;2023-04-03T04:10:04;5.60;1.00
6496;DHT22;3281;47.658;9.166;2023-04-03T04:12:31;5.70;1.00
6496;DHT22;3281;47.658;9.166;2023-04-03T04:14:58;5.80;1.00
6496;DHT22;3281;47.658;9.166;2023-04-03T04:17:24;5.70;1.00
6496;DHT22;3281;47.658;9.166;2023-04-03T04:19:51;5.60;1.00
6496;DHT22;3281;47.658;9.166;2023-04-03T04:22:18;5.70;1.00
6496;DHT22;3281;47.658;9.166;2023-04-03T04:24:46;5.70;1.00
6496;DHT22;3281;47.658;9.166;2023-04-03T04:27:12;5.60;1.00
6496;DHT22;3281;47.658;9.166;2023-04-03T04:29:41;5.70;1.00
6496;DHT22;3281;47.658;9.166;2023-04-03T04:32:07;5.70;1.00
6496;DHT22;3281;47.658;9.166;2023-04-03T04:34:34;5.70;1.00
6496;DHT22;3281;47.658;9.166;2023-04-03T04:37:01;5.80;1.00
6496;DHT22;3281;47.658;9.166;2023-04-03T04:39:28;5.70;1.00
6496;DHT22;3281;47.658;9.166;2023-04-03T04:41:56;5.80;1.00
6496;DHT22;3281;47.658;9.166;2023-04-03T04:44:22;5.80;1.00
6496;DHT22;3281;47.658;9.166;2023-04-03T04:46:49;5.90;1.00
6496;DHT22;3281;47.658;9.166;2023-04-03T04:49:16;5.90;1.00
6496;DHT22;3281;47.658;9.166;2023-04-03T04:51:42;5.80;1.00
6496;DHT22;3281;47.658;9.166;2023-04-03T04:54:09;5.80;1.00
6496;DHT22;3281;47.658;9.166;2023-04-03T04:56:36;6.00;1.00
6496;DHT22;3281;47.658;9.166;2023-04-03T04:59:04;5.90;1.00
6496;DHT22;3281;47.658;9.166;2023-04-03T05:01:31;5.90;1.00
6496;DHT22;3281;47.658;9.166;2023-04-03T05:03:57;5.80;1.00
6496;DHT22;3281;47.658;9.166;2023-04-03T05:06:24;5.90;1.00
6496;DHT22;3281;47.658;9.166;2023-04-03T05:08:51;5.80;1.00
6496;DHT22;3281;47.658;9.166;2023-04-03T05:11:17;5.70;1.00
6496;DHT22;3281;47.658;9.166;2023-04-03T05:13:45;5.90;1.00
6496;DHT22;3281;47.658;9.166;2023-04-03T05:16:13;6.00;1.00
6496;DHT22;3281;47.658;9.166;2023-04-03T05:18:40;6.00;1.00
6496;DHT22;3281;47.658;9.166;2023-04-03T05:21:07;5.80;1.00
6496;DHT22;3281;47.658;9.166;2023-04-03T05:23:33;5.80;1.00
6496;DHT22;3281;47.658;9.166;2023-04-03T05:26:00;5.80;1.00
6496;DHT22;3281;47.658;9.166;2023-04-03T05:28:27;5.90;1.00
6496;DHT22;3281;47.658;9.166;2023-04-03T05:30:54;5.80;1.00
6496;DHT22;3281;47.658;9.166;2023-04-03T05:33:23;6.00;1.00
6496;DHT22;3281;47.658;9.166;2023-04-03T05:35:51;6.10;1.00
6496;DHT22;3281;47.658;9.166;2023-04-03T05:38:18;6.10;1.00
6496;DHT22;3281;47.658;9.166;2023-04-03T05:40:45;6.00;1.00
6496;DHT22;3281;47.658;9.166;2023-04-03T05:43:12;6.00;1.00
6496;DHT22;3281;47.658;9.166;2023-04-03T05:45:39;6.10;1.00
6496;DHT22;3281;47.658;9.166;2023-04-03T05:48:05;5.90;1.00
6496;DHT22;3281;47.658;9.166;2023-04-03T05:50:33;5.90;1.00
6496;DHT22;3281;47.658;9.166;2023-04-03T05:53:02;5.80;1.00
6496;DHT22;3281;47.658;9.166;2023-04-03T05:55:29;5.90;1.00
6496;DHT22;3281;47.658;9.166;2023-04-03T05:57:56;5.90;1.00
6496;DHT22;3281;47.658;9.166;2023-04-03T06:00:23;6.20;1.00
6496;DHT22;3281;47.658;9.166;2023-04-03T06:02:50;5.90;1.00
6496;DHT22;3281;47.658;9.166;2023-04-03T06:05:17;5.90;1.00
6496;DHT22;3281;47.658;9.166;2023-04-03T06:07:45;6.00;1.00
6496;DHT22;3281;47.658;9.166;2023-04-03T06:10:12;6.00;1.00
6496;DHT22;3281;47.658;9.166;2023-04-03T06:12:39;5.90;1.00
6496;DHT22;3281;47.658;9.166;2023-04-03T06:15:06;6.00;1.00
6496;DHT22;3281;47.658;9.166;2023-04-03T06:17:35;6.10;1.00
6496;DHT22;3281;47.658;9.166;2023-04-03T06:20:03;6.10;1.00
6496;DHT22;3281;47.658;9.166;2023-04-03T06:22:30;6.10;1.00
6496;DHT22;3281;47.658;9.166;2023-04-03T06:24:58;6.20;1.00
6496;DHT22;3281;47.658;9.166;2023-04-03T06:27:25;6.20;1.00
6496;DHT22;3281;47.658;9.166;2023-04-03T06:29:51;6.20;1.00
6496;DHT22;3281;47.658;9.166;2023-04-03T06:32:18;6.10;1.00
6496;DHT22;3281;47.658;9.166;2023-04-03T06:34:45;6.10;1.00
6496;DHT22;3281;47.658;9.166;2023-04-03T06:37:14;6.20;1.00
6496;DHT22;3281;47.658;9.166;2023-04-03T06:39:42;6.10;1.00
6496;DHT22;3281;47.658;9.166;2023-04-03T06:42:10;6.20;1.00
6496;DHT22;3281;47.658;9.166;2023-04-03T06:44:36;6.30;1.00
6496;DHT22;3281;47.658;9.166;2023-04-03T06:47:03;6.50;1.00
6496;DHT22;3281;47.658;9.166;2023-04-03T06:49:30;6.40;1.00
6496;DHT22;3281;47.658;9.166;2023-04-03T06:51:57;6.40;1.00
6496;DHT22;3281;47.658;9.166;2023-04-03T06:54:24;6.30;1.00
6496;DHT22;3281;47.658;9.166;2023-04-03T06:56:51;6.30;1.00
6496;DHT22;3281;47.658;9.166;2023-04-03T06:59:19;6.40;1.00
6496;DHT22;3281;47.658;9.166;2023-04-03T07:01:45;6.40;1.00
6496;DHT22;3281;47.658;9.166;2023-04-03T07:04:12;6.60;1.00
6496;DHT22;3281;47.658;9.166;2023-04-03T07:06:39;6.70;1.00
6496;DHT22;3281;47.658;9.166;2023-04-03T07:09:07;6.90;1.00
6496;DHT22;3281;47.658;9.166;2023-04-03T07:11:34;6.90;1.00
6496;DHT22;3281;47.658;9.166;2023-04-03T07:14:01;6.70;1.00
6496;DHT22;3281;47.658;9.166;2023-04-03T07:16:30;6.80;1.00
6496;DHT22;3281;47.658;9.166;2023-04-03T07:18:57;6.90;1.00
6496;DHT22;3281;47.658;9.166;2023-04-03T07:21:24;6.80;1.00
6496;DHT22;3281;47.658;9.166;2023-04-03T07:23:51;6.50;1.00
6496;DHT22;3281;47.658;9.166;2023-04-03T07:26:18;6.60;1.00
6496;DHT22;3281;47.658;9.166;2023-04-03T07:28:46;6.80;1.00
6496;DHT22;3281;47.658;9.166;2023-04-03T07:31:14;6.80;1.00
6496;DHT22;3281;47.658;9.166;2023-04-03T07:33:44;6.80;1.00
6496;DHT22;3281;47.658;9.166;2023-04-03T07:36:15;6.90;1.00
6496;DHT22;3281;47.658;9.166;2023-04-03T07:38:42;6.70;1.00
6496;DHT22;3281;47.658;9.166;2023-04-03T07:41:12;6.60;1.00
6496;DHT22;3281;47.658;9.166;2023-04-03T07:43:40;6.90;1.00
6496;DHT22;3281;47.658;9.166;2023-04-03T07:46:08;7.00;1.00
6496;DHT22;3281;47.658;9.166;2023-04-03T07:48:35;6.80;1.00
6496;DHT22;3281;47.658;9.166;2023-04-03T07:51:04;6.80;1.00
6496;DHT22;3281;47.658;9.166;2023-04-03T07:53:31;6.90;1.00
6496;DHT22;3281;47.658;9.166;2023-04-03T07:55:58;7.00;1.00
6496;DHT22;3281;47.658;9.166;2023-04-03T07:58:25;7.20;1.00
6496;DHT22;3281;47.658;9.166;2023-04-03T08:00:52;7.20;1.00
6496;DHT22;3281;47.658;9.166;2023-04-03T08:03:19;7.10;1.00
6496;DHT22;3281;47.658;9.166;2023-04-03T08:05:47;7.10;1.00
6496;DHT22;3281;47.658;9.166;2023-04-03T08:08:18;7.20;1.00
6496;DHT22;3281;47.658;9.166;2023-04-03T08:10:48;7.20;1.00
6496;DHT22;3281;47.658;9.166;2023-04-03T08:13:16;7.20;1.00
6496;DHT22;3281;47.658;9.166;2023-04-03T08:15:42;7.30;1.00
6496;DHT22;3281;47.658;9.166;2023-04-03T08:18:10;7.30;1.00
6496;DHT22;3281;47.658;9.166;2023-04-03T08:20:37;7.40;1.00
6496;DHT22;3281;47.658;9.166;2023-04-03T08:23:04;7.20;1.00
6496;DHT22;3281;47.658;9.166;2023-04-03T08:25:32;7.30;1.00
6496;DHT22;3281;47.658;9.166;2023-04-03T08:27:59;7.40;1.00
6496;DHT22;3281;47.658;9.166;2023-04-03T08:30:27;7.40;1.00
6496;DHT22;3281;47.658;9.166;2023-04-03T08:32:54;7.50;1.00
6496;DHT22;3281;47.658;9.166;2023-04-03T08:35:20;7.50;1.00
6496;DHT22;3281;47.658;9.166;2023-04-03T08:37:47;7.40;1.00
6496;DHT22;3281;47.658;9.166;2023-04-03T08:40:16;7.30;1.00
6496;DHT22;3281;47.658;9.166;2023-04-03T08:42:53;7.20;1.00
6496;DHT22;3281;47.658;9.166;2023-04-03T08:45:27;7.40;1.00
6496;DHT22;3281;47.658;9.166;2023-04-03T08:48:03;7.50;1.00
6496;DHT22;3281;47.658;9.166;2023-04-03T08:50:35;7.60;1.00
6496;DHT22;3281;47.658;9.166;2023-04-03T08:53:03;7.80;1.00
6496;DHT22;3281;47.658;9.166;2023-04-03T08:55:34;7.70;1.00
6496;DHT22;3281;47.658;9.166;2023-04-03T08:58:06;7.70;1.00
6496;DHT22;3281;47.658;9.166;2023-04-03T09:00:48;7.70;1.00
6496;DHT22;3281;47.658;9.166;2023-04-03T09:03:17;7.60;1.00
6496;DHT22;3281;47.658;9.166;2023-04-03T09:05:48;7.70;1.00
6496;DHT22;3281;47.658;9.166;2023-04-03T09:08:22;7.70;1.00
6496;DHT22;3281;47.658;9.166;2023-04-03T09:10:57;7.60;1.00
6496;DHT22;3281;47.658;9.166;2023-04-03T09:13:30;7.50;1.00
6496;DHT22;3281;47.658;9.166;2023-04-03T09:16:02;7.80;1.00
6496;DHT22;3281;47.658;9.166;2023-04-03T09:18:36;7.90;1.00
6496;DHT22;3281;47.658;9.166;2023-04-03T09:21:12;7.70;1.00
6496;DHT22;3281;47.658;9.166;2023-04-03T09:23:43;7.60;1.00
6496;DHT22;3281;47.658;9.166;2023-04-03T09:26:15;7.90;1.00
6496;DHT22;3281;47.658;9.166;2023-04-03T09:28:46;7.80;1.00
6496;DHT22;3281;47.658;9.166;2023-04-03T09:31:19;7.90;1.00
6496;DHT22;3281;47.658;9.166;2023-04-03T09:33:47;7.80;1.00
6496;DHT22;3281;47.658;9.166;2023-04-03T09:36:14;8.00;1.00
6496;DHT22;3281;47.658;9.166;2023-04-03T09:39:03;8.00;1.00
6496;DHT22;3281;47.658;9.166;2023-04-03T09:41:30;8.00;1.00
6496;DHT22;3281;47.658;9.166;2023-04-03T09:43:59;8.10;1.00
6496;DHT22;3281;47.658;9.166;2023-04-03T09:46:30;8.20;1.00
6496;DHT22;3281;47.658;9.166;2023-04-03T09:48:59;8.50;1.00
6496;DHT22;3281;47.658;9.166;2023-04-03T09:51:28;8.60;1.00
6496;DHT22;3281;47.658;9.166;2023-04-03T09:53:56;8.70;1.00
6496;DHT22;3281;47.658;9.166;2023-04-03T09:56:25;8.70;1.00
6496;DHT22;3281;47.658;9.166;2023-04-03T09:59:12;8.80;1.00
6496;DHT22;3281;47.658;9.166;2023-04-03T10:01:57;8.50;1.00
6496;DHT22;3281;47.658;9.166;2023-04-03T10:04:24;8.50;1.00
6496;DHT22;3281;47.658;9.166;2023-04-03T10:06:52;8.60;1.00
6496;DHT22;3281;47.658;9.166;2023-04-03T10:09:20;8.80;1.00
6496;DHT22;3281;47.658;9.166;2023-04-03T10:12:01;8.80;1.00
6496;DHT22;3281;47.658;9.166;2023-04-03T10:14:32;8.80;1.00
6496;DHT22;3281;47.658;9.166;2023-04-03T10:17:05;8.80;1.00
6496;DHT22;3281;47.658;9.166;2023-04-03T10:19:39;8.80;1.00
6496;DHT22;3281;47.658;9.166;2023-04-03T10:22:16;9.00;1.00
6496;DHT22;3281;47.658;9.166;2023-04-03T10:24:53;8.80;1.00
6496;DHT22;3281;47.658;9.166;2023-04-03T10:27:31;8.60;1.00
6496;DHT22;3281;47.658;9.166;2023-04-03T10:30:06;8.70;1.00
6496;DHT22;3281;47.658;9.166;2023-04-03T10:32:46;8.70;1.00
6496;DHT22;3281;47.658;9.166;2023-04-03T10:35:20;8.60;1.00
6496;DHT22;3281;47.658;9.166;2023-04-03T10:38:00;8.70;1.00
6496;DHT22;3281;47.658;9.166;2023-04-03T10:40:33;8.90;1.00
6496;DHT22;3281;47.658;9.166;2023-04-03T10:43:06;9.10;1.00
6496;DHT22;3281;47.658;9.166;2023-04-03T10:45:49;8.90;1.00
6496;DHT22;3281;47.658;9.166;2023-04-03T10:48:27;8.90;1.00
6496;DHT22;3281;47.658;9.166;2023-04-03T10:51:01;8.90;1.00
6496;DHT22;3281;47.658;9.166;2023-04-03T10:53:36;8.80;1.00
6496;DHT22;3281;47.658;9.166;2023-04-03T10:56:11;9.10;1.00
6496;DHT22;3281;47.658;9.166;2023-04-03T10:58:44;8.90;1.00
6496;DHT22;3281;47.658;9.166;2023-04-03T11:01:16;8.80;1.00
6496;DHT22;3281;47.658;9.166;2023-04-03T11:03:46;8.70;1.00
6496;DHT22;3281;47.658;9.166;2023-04-03T11:06:15;8.90;1.00
6496;DHT22;3281;47.658;9.166;2023-04-03T11:08:45;9.20;1.00
6496;DHT22;3281;47.658;9.166;2023-04-03T11:11:17;9.40;1.00
6496;DHT22;3281;47.658;9.166;2023-04-03T11:13:51;9.30;1.00
6496;DHT22;3281;47.658;9.166;2023-04-03T11:16:24;9.50;1.00
6496;DHT22;3281;47.658;9.166;2023-04-03T11:18:54;9.50;1.00
6496;DHT22;3281;47.658;9.166;2023-04-03T11:21:27;9.80;1.00
6496;DHT22;3281;47.658;9.166;2023-04-03T11:23:57;9.70;1.00
6496;DHT22;3281;47.658;9.166;2023-04-03T11:26:29;9.70;1.00
6496;DHT22;3281;47.658;9.166;2023-04-03T11:29:01;9.70;1.00
6496;DHT22;3281;47.658;9.166;2023-04-03T11:31:43;9.60;1.00
6496;DHT22;3281;47.658;9.166;2023-04-03T11:34:24;9.70;1.00
6496;DHT22;3281;47.658;9.166;2023-04-03T11:36:55;9.50;1.00
6496;DHT22;3281;47.658;9.166;2023-04-03T11:39:25;9.60;1.00
6496;DHT22;3281;47.658;9.166;2023-04-03T11:41:53;9.40;1.00
6496;DHT22;3281;47.658;9.166;2023-04-03T11:44:34;9.50;1.00
6496;DHT22;3281;47.658;9.166;2023-04-03T11:47:04;9.30;1.00
6496;DHT22;3281;47.658;9.166;2023-04-03T11:49:54;9.30;1.00
6496;DHT22;3281;47.658;9.166;2023-04-03T11:52:56;9.10;1.00
6496;DHT22;3281;47.658;9.166;2023-04-03T11:55:53;9.10;1.00
6496;DHT22;3281;47.658;9.166;2023-04-03T11:58:21;9.20;1.00
6496;DHT22;3281;47.658;9.166;2023-04-03T12:00:51;9.30;1.00
6496;DHT22;3281;47.658;9.166;2023-04-03T12:09:29;9.50;1.00
6496;DHT22;3281;47.658;9.166;2023-04-03T12:11:59;9.40;1.00
6496;DHT22;3281;47.658;9.166;2023-04-03T12:14:28;9.30;1.00
6496;DHT22;3281;47.658;9.166;2023-04-03T12:16:55;9.30;1.00
6496;DHT22;3281;47.658;9.166;2023-04-03T12:19:36;9.20;1.00
6496;DHT22;3281;47.658;9.166;2023-04-03T12:22:19;9.30;1.00
6496;DHT22;3281;47.658;9.166;2023-04-03T12:24:49;9.30;1.00
6496;DHT22;3281;47.658;9.166;2023-04-03T12:27:28;9.40;1.00
6496;DHT22;3281;47.658;9.166;2023-04-03T12:30:07;9.30;1.00
6496;DHT22;3281;47.658;9.166;2023-04-03T12:32:54;9.30;1.00
6496;DHT22;3281;47.658;9.166;2023-04-03T12:35:27;9.30;1.00
6496;DHT22;3281;47.658;9.166;2023-04-03T12:41:04;9.50;1.00
6496;DHT22;3281;47.658;9.166;2023-04-03T12:43:47;9.60;1.00
6496;DHT22;3281;47.658;9.166;2023-04-03T12:46:19;9.50;1.00
6496;DHT22;3281;47.658;9.166;2023-04-03T12:48:49;9.60;1.00
6496;DHT22;3281;47.658;9.166;2023-04-03T12:51:19;9.60;1.00
6496;DHT22;3281;47.658;9.166;2023-04-03T12:53:48;9.50;1.00
6496;DHT22;3281;47.658;9.166;2023-04-03T12:56:22;9.50;1.00
6496;DHT22;3281;47.658;9.166;2023-04-03T12:58:51;9.50;1.00
6496;DHT22;3281;47.658;9.166;2023-04-03T13:01:20;9.60;1.00
6496;DHT22;3281;47.658;9.166;2023-04-03T13:03:49;9.30;1.00
6496;DHT22;3281;47.658;9.166;2023-04-03T13:06:19;9.30;1.00
6496;DHT22;3281;47.658;9.166;2023-04-03T13:08:52;9.40;1.00
6496;DHT22;3281;47.658;9.166;2023-04-03T13:11:21;9.40;1.00
6496;DHT22;3281;47.658;9.166;2023-04-03T13:13:56;9.60;1.00
6496;DHT22;3281;47.658;9.166;2023-04-03T13:16:23;9.50;1.00
6496;DHT22;3281;47.658;9.166;2023-04-03T13:18:51;9.60;1.00
6496;DHT22;3281;47.658;9.166;2023-04-03T13:21:22;9.70;1.00
6496;DHT22;3281;47.658;9.166;2023-04-03T13:23:52;9.80;1.00
6496;DHT22;3281;47.658;9.166;2023-04-03T13:26:24;9.70;1.00
6496;DHT22;3281;47.658;9.166;2023-04-03T13:28:52;9.60;1.00
6496;DHT22;3281;47.658;9.166;2023-04-03T13:31:33;9.40;1.00
6496;DHT22;3281;47.658;9.166;2023-04-03T13:34:03;9.80;1.00
6496;DHT22;3281;47.658;9.166;2023-04-03T13:36:33;9.90;1.00
6496;DHT22;3281;47.658;9.166;2023-04-03T13:39:05;9.80;1.00
6496;DHT22;3281;47.658;9.166;2023-04-03T13:41:35;9.80;1.00
6496;DHT22;3281;47.658;9.166;2023-04-03T13:44:28;10.00;1.00
6496;DHT22;3281;47.658;9.166;2023-04-03T13:46:56;9.90;1.00
6496;DHT22;3281;47.658;9.166;2023-04-03T13:49:30;9.90;1.00
6496;DHT22;3281;47.658;9.166;2023-04-03T13:51:58;10.00;1.00
6496;DHT22;3281;47.658;9.166;2023-04-03T13:54:30;9.80;1.00
6496;DHT22;3281;47.658;9.166;2023-04-03T13:57:00;9.90;1.00
6496;DHT22;3281;47.658;9.166;2023-04-03T13:59:28;9.90;1.00
6496;DHT22;3281;47.658;9.166;2023-04-03T14:02:10;9.90;1.00
6496;DHT22;3281;47.658;9.166;2023-04-03T14:04:48;9.90;1.00
6496;DHT22;3281;47.658;9.166;2023-04-03T14:07:16;9.90;1.00
6496;DHT22;3281;47.658;9.166;2023-04-03T14:09:45;9.70;1.00
6496;DHT22;3281;47.658;9.166;2023-04-03T14:12:16;9.80;1.00
6496;DHT22;3281;47.658;9.166;2023-04-03T14:14:43;9.80;1.00
6496;DHT22;3281;47.658;9.166;2023-04-03T14:17:14;9.60;1.00
6496;DHT22;3281;47.658;9.166;2023-04-03T14:19:41;9.50;1.00
6496;DHT22;3281;47.658;9.166;2023-04-03T14:22:14;9.30;1.00
6496;DHT22;3281;47.658;9.166;2023-04-03T14:24:41;9.10;1.00
6496;DHT22;3281;47.658;9.166;2023-04-03T14:27:17;9.30;1.00
6496;DHT22;3281;47.658;9.166;2023-04-03T14:29:44;9.40;1.00
6496;DHT22;3281;47.658;9.166;2023-04-03T14:32:13;9.50;1.00
6496;DHT22;3281;47.658;9.166;2023-04-03T14:34:40;9.50;1.00
6496;DHT22;3281;47.658;9.166;2023-04-03T14:37:10;9.40;1.00
6496;DHT22;3281;47.658;9.166;2023-04-03T14:39:37;9.30;1.00
6496;DHT22;3281;47.658;9.166;2023-04-03T14:42:04;9.40;1.00
6496;DHT22;3281;47.658;9.166;2023-04-03T14:44:33;9.20;1.00
6496;DHT22;3281;47.658;9.166;2023-04-03T14:47:00;9.20;1.00
6496;DHT22;3281;47.658;9.166;2023-04-03T14:49:28;9.00;1.00
6496;DHT22;3281;47.658;9.166;2023-04-03T14:51:55;8.90;1.00
6496;DHT22;3281;47.658;9.166;2023-04-03T14:54:23;9.00;1.00
6496;DHT22;3281;47.658;9.166;2023-04-03T14:56:53;9.10;1.00
6496;DHT22;3281;47.658;9.166;2023-04-03T14:59:19;9.10;1.00
6496;DHT22;3281;47.658;9.166;2023-04-03T15:01:48;8.90;1.00
6496;DHT22;3281;47.658;9.166;2023-04-03T15:04:17;8.90;1.00
6496;DHT22;3281;47.658;9.166;2023-04-03T15:06:44;9.10;1.00
6496;DHT22;3281;47.658;9.166;2023-04-03T15:09:18;9.20;1.00
6496;DHT22;3281;47.658;9.166;2023-04-03T15:11:46;9.10;1.00
6496;DHT22;3281;47.658;9.166;2023-04-03T15:14:12;9.00;1.00
6496;DHT22;3281;47.658;9.166;2023-04-03T15:16:40;8.90;1.00
6496;DHT22;3281;47.658;9.166;2023-04-03T15:19:08;9.00;1.00
6496;DHT22;3281;47.658;9.166;2023-04-03T15:21:35;9.00;1.00
6496;DHT22;3281;47.658;9.166;2023-04-03T15:24:02;8.90;1.00
6496;DHT22;3281;47.658;9.166;2023-04-03T15:26:29;9.00;1.00
6496;DHT22;3281;47.658;9.166;2023-04-03T15:28:56;8.90;1.00
6496;DHT22;3281;47.658;9.166;2023-04-03T15:31:23;9.10;1.00
6496;DHT22;3281;47.658;9.166;2023-04-03T15:33:50;9.00;1.00
6496;DHT22;3281;47.658;9.166;2023-04-03T15:36:18;8.90;1.00
6496;DHT22;3281;47.658;9.166;2023-04-03T15:38:45;9.00;1.00
6496;DHT22;3281;47.658;9.166;2023-04-03T15:41:11;8.90;1.00
6496;DHT22;3281;47.658;9.166;2023-04-03T15:43:38;8.90;1.00
6496;DHT22;3281;47.658;9.166;2023-04-03T15:46:05;8.90;1.00
6496;DHT22;3281;47.658;9.166;2023-04-03T15:48:32;8.90;1.00
6496;DHT22;3281;47.658;9.166;2023-04-03T15:50:59;8.80;1.00
6496;DHT22;3281;47.658;9.166;2023-04-03T15:53:28;8.90;1.00
6496;DHT22;3281;47.658;9.166;2023-04-03T15:55:55;8.70;1.00
6496;DHT22;3281;47.658;9.166;2023-04-03T15:58:22;8.60;1.00
6496;DHT22;3281;47.658;9.166;2023-04-03T16:00:48;8.70;1.00
6496;DHT22;3281;47.658;9.166;2023-04-03T16:03:17;8.50;1.00
6496;DHT22;3281;47.658;9.166;2023-04-03T16:05:45;8.50;1.00
6496;DHT22;3281;47.658;9.166;2023-04-03T16:08:12;8.40;1.00
6496;DHT22;3281;47.658;9.166;2023-04-03T16:10:40;8.40;1.00
6496;DHT22;3281;47.658;9.166;2023-04-03T16:13:07;8.30;1.00
6496;DHT22;3281;47.658;9.166;2023-04-03T16:15:34;8.50;1.00
6496;DHT22;3281;47.658;9.166;2023-04-03T16:18:02;8.60;1.00
6496;DHT22;3281;47.658;9.166;2023-04-03T16:20:30;8.40;1.00
6496;DHT22;3281;47.658;9.166;2023-04-03T16:22:57;8.30;1.00
6496;DHT22;3281;47.658;9.166;2023-04-03T16:25:24;8.30;1.00
6496;DHT22;3281;47.658;9.166;2023-04-03T16:27:53;8.20;1.00
6496;DHT22;3281;47.658;9.166;2023-04-03T16:30:20;8.30;1.00
6496;DHT22;3281;47.658;9.166;2023-04-03T16:32:46;8.30;1.00
6496;DHT22;3281;47.658;9.166;2023-04-03T16:35:13;8.20;1.00
6496;DHT22;3281;47.658;9.166;2023-04-03T16:37:40;8.20;1.00
6496;DHT22;3281;47.658;9.166;2023-04-03T16:40:08;8.30;1.00
6496;DHT22;3281;47.658;9.166;2023-04-03T16:42:35;8.00;1.00
6496;DHT22;3281;47.658;9.166;2023-04-03T16:45:04;8.20;1.00
6496;DHT22;3281;47.658;9.166;2023-04-03T16:47:31;8.10;1.00
6496;DHT22;3281;47.658;9.166;2023-04-03T16:49:58;8.20;1.00
6496;DHT22;3281;47.658;9.166;2023-04-03T16:52:25;8.20;1.00
6496;DHT22;3281;47.658;9.166;2023-04-03T16:54:51;8.10;1.00
6496;DHT22;3281;47.658;9.166;2023-04-03T16:57:21;8.10;1.00
6496;DHT22;3281;47.658;9.166;2023-04-03T16:59:49;8.00;1.00